Stampede Pass, Washington
Current Conditions -  °F | °C
As of 6:53 PM on Sunday 23 Nov 2014 (Local Time) from KELN Reporting Station
Light Rain Light Rain  
Wind Chill: 29°   Ceiling: Unl
Heat Index: 40°   Visibility: 10mi
Dew Point: 33°   Wind: 26mph
Humidity: 77%   Direction: 310°NW
Pressure: 30.18"   Gusts: 33mph
Location:  47.28°N, 121.33°W
Report Text: KELN 240253Z AUTO 31023G29KT 10SM -RA SCT048 04/01 A3018 RMK AO2 PK WND 31032/0236 SLP233 P0000 60000 T00440006 53025
Loading
Personal Weather Stations






























Interactive Weather Map New forecast layout! Learn more

10-Day Weather Forecast

Advertisements
Track Severe Weather on mobile